createdAt,value
2019-05-18T07:06:44.035Z,19.62
2019-05-18T07:09:14.593Z,19.17
2019-05-18T07:11:44.865Z,19.27
2019-05-18T07:14:25.393Z,18.40
2019-05-18T07:16:48.213Z,19.25
2019-05-18T07:19:18.561Z,20.80
2019-05-18T07:21:48.816Z,19.60
2019-05-18T07:24:18.971Z,20.30
2019-05-18T07:26:49.090Z,18.60
2019-05-18T07:29:19.109Z,18.25
2019-05-18T07:31:49.266Z,17.95
2019-05-18T07:34:19.299Z,19.30
2019-05-18T07:36:49.439Z,19.87
2019-05-18T07:39:19.619Z,17.92
2019-05-18T07:41:49.581Z,17.02
2019-05-18T07:44:19.911Z,19.10
2019-05-18T07:46:50.007Z,17.98
2019-05-18T07:49:20.155Z,18.75
2019-05-18T07:51:50.168Z,16.80
2019-05-18T07:54:20.229Z,17.07
2019-05-18T07:56:50.284Z,15.85
2019-05-18T07:59:20.338Z,17.30
2019-05-18T08:01:50.368Z,16.23
2019-05-18T08:04:20.592Z,18.05
2019-05-18T08:06:50.719Z,17.95
2019-05-18T08:09:20.919Z,16.85
2019-05-18T08:11:51.015Z,17.73
2019-05-18T08:14:22.322Z,18.42
2019-05-18T08:16:52.404Z,17.17
2019-05-18T08:19:22.411Z,15.48
2019-05-18T08:21:53.702Z,17.85
2019-05-18T08:24:23.952Z,17.00
2019-05-18T08:26:54.063Z,16.35
2019-05-18T08:29:24.222Z,16.15
2019-05-18T08:31:54.247Z,17.05
2019-05-18T08:34:24.404Z,16.48
2019-05-18T08:36:54.648Z,18.50
2019-05-18T08:39:29.100Z,17.57
2019-05-18T08:41:59.234Z,17.37
2019-05-18T08:44:29.640Z,17.05
2019-05-18T08:47:00.168Z,18.67
2019-05-18T08:49:30.537Z,17.57
2019-05-18T08:52:08.354Z,17.45
2019-05-18T08:54:37.213Z,18.45
2019-05-18T08:57:08.423Z,18.75
2019-05-18T08:59:40.009Z,18.57
2019-05-18T09:02:10.564Z,18.85
2019-05-18T09:04:40.782Z,19.50
2019-05-18T09:07:12.061Z,20.30
2019-05-18T09:09:42.057Z,20.57
2019-05-18T09:12:19.068Z,19.45
2019-05-18T09:14:56.310Z,18.92
2019-05-18T09:17:35.443Z,19.90
2019-05-18T09:20:18.430Z,18.23
2019-05-18T09:22:51.394Z,17.92
2019-05-18T09:25:21.587Z,16.35
2019-05-18T09:27:51.652Z,14.25
2019-05-18T09:30:22.347Z,13.08
2019-05-18T09:32:52.942Z,12.85
2019-05-18T09:35:27.867Z,11.20
2019-05-18T09:37:58.107Z,10.25
2019-05-18T09:40:28.423Z,8.48
2019-05-18T09:42:58.618Z,8.38
2019-05-18T09:45:28.861Z,8.03
2019-05-18T09:48:02.184Z,8.50
2019-05-18T09:50:36.271Z,7.83
2019-05-18T09:53:06.585Z,7.53
2019-05-18T09:55:36.821Z,7.25
2019-05-18T09:58:07.218Z,7.40
2019-05-18T10:00:39.076Z,8.78
2019-05-18T10:03:10.555Z,8.13
2019-05-18T10:05:40.809Z,8.20
2019-05-18T10:08:11.145Z,8.28
2019-05-18T10:10:41.316Z,9.58
2019-05-18T10:13:13.001Z,8.95
2019-05-18T10:15:43.286Z,7.90
2019-05-18T10:18:13.517Z,9.28
2019-05-18T10:20:43.747Z,8.03
2019-05-18T10:23:14.119Z,8.13
2019-05-18T10:25:44.437Z,7.50
2019-05-18T10:28:16.912Z,8.25
2019-05-18T10:30:47.117Z,8.63
2019-05-18T10:33:17.318Z,9.35
2019-05-18T10:35:47.350Z,8.03
2019-05-18T10:38:18.015Z,9.93
2019-05-18T10:40:48.236Z,9.18
2019-05-18T10:43:18.325Z,7.37
2019-05-18T10:45:48.478Z,7.20
2019-05-18T10:48:18.601Z,6.95
2019-05-18T10:50:48.919Z,7.05
2019-05-18T10:53:28.370Z,6.62
2019-05-18T10:55:56.140Z,6.62
2019-05-18T10:58:30.407Z,6.17
2019-05-18T11:01:06.213Z,6.90
2019-05-18T11:03:36.377Z,6.78
2019-05-18T11:06:13.459Z,6.67
2019-05-18T11:08:59.359Z,6.60
2019-05-18T11:11:29.636Z,6.78
2019-05-18T11:14:02.324Z,6.53
2019-05-18T11:16:33.551Z,6.67
2019-05-18T11:19:03.788Z,7.10
2019-05-18T11:21:33.958Z,6.90
2019-05-18T11:24:04.325Z,7.37
2019-05-18T11:26:34.601Z,6.95
2019-05-18T11:29:04.837Z,7.33
2019-05-18T11:31:35.049Z,8.10
2019-05-18T11:34:05.149Z,6.87
2019-05-18T11:36:55.365Z,7.03
2019-05-18T11:39:25.411Z,7.03
2019-05-18T11:41:55.488Z,7.08
2019-05-18T11:44:25.687Z,6.62
2019-05-18T11:46:55.691Z,7.15
2019-05-18T11:49:28.964Z,7.12
2019-05-18T11:51:57.804Z,7.40
2019-05-18T11:54:27.810Z,6.97
2019-05-18T11:56:57.813Z,7.70
2019-05-18T11:59:28.081Z,7.22
2019-05-18T12:01:58.162Z,7.17
2019-05-18T12:04:29.543Z,8.25
2019-05-18T12:06:59.576Z,7.58
2019-05-18T12:09:29.824Z,8.18
2019-05-18T12:11:59.949Z,9.98
2019-05-18T12:14:30.125Z,8.00
2019-05-18T12:17:00.261Z,8.08
2019-05-18T12:19:30.319Z,8.00
2019-05-18T12:22:00.540Z,8.28
2019-05-18T12:24:30.659Z,8.33
2019-05-18T12:27:00.830Z,8.73
2019-05-18T12:29:34.093Z,9.93
2019-05-18T12:32:04.203Z,8.50
2019-05-18T12:34:34.745Z,8.10
2019-05-18T12:37:04.996Z,8.48
2019-05-18T12:39:35.188Z,7.90
2019-05-18T12:42:07.582Z,8.45
2019-05-18T12:44:37.314Z,8.55
2019-05-18T12:47:07.589Z,8.13
2019-05-18T12:49:38.910Z,8.03
2019-05-18T12:52:09.324Z,8.53
2019-05-18T12:54:46.380Z,8.48
2019-05-18T12:57:13.805Z,8.30
2019-05-18T12:59:43.826Z,8.18
2019-05-18T13:02:14.092Z,8.43
2019-05-18T13:04:44.514Z,8.85
2019-05-18T13:07:14.811Z,8.63
2019-05-18T13:09:45.082Z,8.13
2019-05-18T13:12:15.341Z,8.68
2019-05-18T13:14:45.484Z,9.58
2019-05-18T13:17:15.642Z,9.00
2019-05-18T13:19:45.946Z,8.38
2019-05-18T13:22:16.134Z,8.83
2019-05-18T13:24:46.283Z,7.75
2019-05-18T13:27:16.471Z,8.23
2019-05-18T13:29:46.593Z,7.53
2019-05-18T13:32:16.844Z,8.38
2019-05-18T13:34:46.998Z,7.28
2019-05-18T13:37:20.888Z,7.22
2019-05-18T13:39:52.036Z,7.72
2019-05-18T13:42:22.143Z,7.80
2019-05-18T13:44:52.239Z,8.28
2019-05-18T13:47:22.478Z,8.40
2019-05-18T13:49:52.555Z,8.33
2019-05-18T13:52:23.606Z,7.95
2019-05-18T13:55:03.533Z,8.20
2019-05-18T13:57:25.534Z,7.83
2019-05-18T13:59:56.753Z,8.10
2019-05-18T14:02:27.086Z,8.10
2019-05-18T14:04:57.350Z,7.80
2019-05-18T14:07:27.471Z,7.85
2019-05-18T14:09:57.788Z,8.38
2019-05-18T14:12:29.086Z,7.20
2019-05-18T14:14:59.255Z,8.18
2019-05-18T14:17:29.322Z,7.03
2019-05-18T14:19:59.468Z,7.12
2019-05-18T14:22:29.755Z,7.87
2019-05-18T14:25:01.266Z,7.53
2019-05-18T14:27:31.294Z,8.63
2019-05-18T14:30:01.451Z,7.90
2019-05-18T14:32:31.726Z,6.78
2019-05-18T14:35:01.877Z,6.97
2019-05-18T14:37:31.997Z,7.12
2019-05-18T14:40:02.032Z,6.67
2019-05-18T14:42:32.123Z,7.08
2019-05-18T14:45:03.231Z,6.90
2019-05-18T14:47:33.486Z,6.95
2019-05-18T14:50:05.366Z,6.72
2019-05-18T14:52:36.597Z,7.28
2019-05-18T14:55:06.847Z,7.08
2019-05-18T14:57:52.820Z,7.97
2019-05-18T15:00:23.189Z,6.12
2019-05-18T15:02:53.384Z,5.78
2019-05-18T15:05:23.733Z,6.35
2019-05-18T15:07:53.927Z,5.72
2019-05-18T15:10:25.094Z,6.00
2019-05-18T15:12:55.226Z,6.03
2019-05-18T15:15:25.431Z,5.90
2019-05-18T15:17:55.857Z,5.95
2019-05-18T15:20:26.044Z,5.53
2019-05-18T15:22:56.133Z,5.75
2019-05-18T15:25:26.359Z,5.95
2019-05-18T15:27:56.488Z,5.33
2019-05-18T15:30:26.773Z,5.45
2019-05-18T15:32:56.836Z,5.80
2019-05-18T15:35:26.969Z,6.33
2019-05-18T15:37:57.263Z,5.75
2019-05-18T15:40:27.442Z,4.78
2019-05-18T15:42:57.634Z,6.03
2019-05-18T15:45:27.563Z,5.20
2019-05-18T15:47:57.552Z,5.15
2019-05-18T15:50:28.075Z,5.90
2019-05-18T15:52:58.216Z,4.70
2019-05-18T15:55:28.831Z,4.37
2019-05-18T15:57:58.978Z,3.60
2019-05-18T16:00:29.202Z,3.00
2019-05-18T16:02:59.391Z,3.65
2019-05-18T16:05:29.620Z,3.75
2019-05-18T16:07:59.789Z,3.77
2019-05-18T16:10:30.073Z,3.85
2019-05-18T16:13:00.098Z,3.92
2019-05-18T16:15:30.213Z,4.00
2019-05-18T16:18:00.307Z,3.67
2019-05-18T16:20:30.548Z,4.83
2019-05-18T16:23:00.688Z,4.00
2019-05-18T16:25:30.885Z,4.33
2019-05-18T16:28:01.181Z,4.28
2019-05-18T16:30:31.333Z,4.72
2019-05-18T16:33:01.633Z,4.03
2019-05-18T16:35:32.294Z,3.92
2019-05-18T16:38:02.392Z,4.42
2019-05-18T16:40:32.459Z,4.15
2019-05-18T16:43:02.997Z,4.78
2019-05-18T16:45:33.114Z,4.55
2019-05-18T16:48:03.283Z,5.30
2019-05-18T16:50:33.473Z,4.95
2019-05-18T16:53:03.718Z,4.95
2019-05-18T16:55:34.235Z,4.85
2019-05-18T16:58:04.437Z,4.78
2019-05-18T17:00:34.572Z,4.55
2019-05-18T17:03:04.742Z,5.12
2019-05-18T17:05:35.002Z,5.90
2019-05-18T17:08:05.309Z,4.95
2019-05-18T17:10:35.535Z,4.67
2019-05-18T17:13:05.723Z,5.15
2019-05-18T17:15:35.931Z,4.85
2019-05-18T17:18:06.192Z,4.70
2019-05-18T17:20:36.256Z,4.40
2019-05-18T17:23:06.273Z,4.75
2019-05-18T17:25:36.444Z,5.10
2019-05-18T17:28:06.751Z,5.17
2019-05-18T17:30:36.972Z,5.15
2019-05-18T17:33:07.136Z,6.67
2019-05-18T17:35:37.215Z,6.70
2019-05-18T17:38:07.389Z,6.15
2019-05-18T17:40:37.573Z,6.62
2019-05-18T17:43:07.705Z,6.87
2019-05-18T17:45:37.843Z,6.67
2019-05-18T17:48:08.095Z,6.35
2019-05-18T17:50:38.205Z,6.05
2019-05-18T17:53:08.416Z,6.78
2019-05-18T17:55:38.453Z,5.65
2019-05-18T17:58:09.689Z,6.08
2019-05-18T18:00:39.873Z,6.60
2019-05-18T18:03:10.011Z,6.28
2019-05-18T18:05:40.375Z,6.35
2019-05-18T18:08:10.661Z,7.30
2019-05-18T18:10:40.929Z,5.87
2019-05-18T18:13:11.162Z,6.12
2019-05-18T18:15:41.657Z,6.67
2019-05-18T18:18:11.876Z,7.78
2019-05-18T18:20:42.120Z,7.37
2019-05-18T18:23:12.278Z,6.53
2019-05-18T18:25:42.315Z,7.12
2019-05-18T18:28:12.361Z,7.25
2019-05-18T18:30:42.487Z,7.03
2019-05-18T18:33:12.766Z,8.33
2019-05-18T18:35:42.874Z,7.65
2019-05-18T18:38:13.154Z,7.70
2019-05-18T18:40:45.132Z,7.45
2019-05-18T18:43:20.462Z,7.75
2019-05-18T18:45:50.402Z,9.75
2019-05-18T18:48:20.493Z,9.88
2019-05-18T18:50:50.694Z,8.60
2019-05-18T18:53:20.973Z,8.70
2019-05-18T18:55:52.433Z,9.35
2019-05-18T18:58:22.537Z,9.35
2019-05-18T19:00:52.679Z,9.43
2019-05-18T19:03:24.197Z,10.45
2019-05-18T19:05:54.282Z,10.80
2019-05-18T19:08:26.115Z,11.35
2019-05-18T19:11:02.385Z,10.55
2019-05-18T19:13:45.737Z,10.25
2019-05-18T19:16:15.721Z,11.05
2019-05-18T19:18:45.717Z,11.50
2019-05-18T19:21:17.474Z,11.48
2019-05-18T19:23:52.022Z,10.63
2019-05-18T19:26:31.444Z,10.85
2019-05-18T19:29:05.190Z,11.68
2019-05-18T19:31:35.684Z,11.00
2019-05-18T19:34:05.895Z,11.38
2019-05-18T19:36:36.596Z,11.40
2019-05-18T19:39:08.265Z,9.93
2019-05-18T19:41:39.000Z,11.45
2019-05-18T19:44:09.487Z,10.43
2019-05-18T19:46:39.741Z,11.20
2019-05-18T19:49:11.871Z,10.43
2019-05-18T19:51:44.174Z,10.78
2019-05-18T19:54:15.113Z,10.95
2019-05-18T19:56:46.068Z,11.85
2019-05-18T19:59:16.645Z,10.95
2019-05-18T20:01:46.866Z,11.05
2019-05-18T20:04:18.954Z,10.78
2019-05-18T20:06:49.074Z,12.15
2019-05-18T20:09:19.344Z,10.80
2019-05-18T20:11:49.535Z,10.32
2019-05-18T20:14:20.991Z,10.55
2019-05-18T20:16:52.205Z,10.93
2019-05-18T20:19:37.915Z,10.98
2019-05-18T20:21:54.423Z,11.43
2019-05-18T20:24:24.704Z,11.48
2019-05-18T20:26:54.842Z,11.12
2019-05-18T20:29:25.046Z,10.90
2019-05-18T20:31:57.041Z,10.93
2019-05-18T20:34:27.279Z,12.33
2019-05-18T20:36:57.470Z,14.98
2019-05-18T20:39:28.079Z,15.72
2019-05-18T20:41:58.151Z,14.33
2019-05-18T20:44:28.253Z,11.78
2019-05-18T20:46:58.500Z,12.58
2019-05-18T20:49:28.711Z,12.95
2019-05-18T20:51:58.853Z,11.75
2019-05-18T20:54:29.039Z,11.57
2019-05-18T20:57:00.511Z,11.12
2019-05-18T20:59:30.951Z,11.75
2019-05-18T21:02:01.116Z,12.45
2019-05-18T21:04:32.510Z,11.80
2019-05-18T21:07:05.786Z,13.70
2019-05-18T21:09:35.978Z,13.32
2019-05-18T21:12:07.459Z,13.05
2019-05-18T21:14:37.841Z,12.63
2019-05-18T21:17:08.432Z,12.18
2019-05-18T21:19:38.538Z,11.68
2019-05-18T21:22:08.790Z,12.03
2019-05-18T21:24:38.880Z,13.13
2019-05-18T21:27:08.883Z,12.37
2019-05-18T21:29:39.173Z,12.33
2019-05-18T21:32:09.326Z,12.63
2019-05-18T21:34:39.554Z,13.68
2019-05-18T21:37:09.739Z,12.40
2019-05-18T21:39:39.830Z,12.88
2019-05-18T21:42:09.942Z,12.23
2019-05-18T21:44:40.248Z,12.63
2019-05-18T21:47:10.278Z,12.88
2019-05-18T21:49:40.574Z,13.00
2019-05-18T21:52:10.738Z,12.13
2019-05-18T21:54:40.907Z,11.18
2019-05-18T21:57:11.034Z,13.32
2019-05-18T21:59:41.270Z,12.00
2019-05-18T22:02:11.565Z,11.22
2019-05-18T22:04:44.498Z,11.73
2019-05-18T22:07:14.752Z,13.15
2019-05-18T22:09:45.003Z,10.88
2019-05-18T22:12:15.278Z,12.35
2019-05-18T22:14:45.400Z,12.18
2019-05-18T22:17:15.571Z,13.03
2019-05-18T22:19:45.618Z,13.08
2019-05-18T22:22:15.855Z,12.53
2019-05-18T22:24:45.873Z,11.95
2019-05-18T22:27:16.098Z,11.38
2019-05-18T22:29:46.313Z,10.53
2019-05-18T22:32:16.528Z,10.80
2019-05-18T22:34:46.717Z,11.18
2019-05-18T22:37:16.925Z,11.08
2019-05-18T22:39:47.043Z,10.10
2019-05-18T22:42:17.165Z,9.83
2019-05-18T22:44:47.455Z,10.50
2019-05-18T22:47:17.823Z,10.68
2019-05-18T22:49:48.006Z,10.78
2019-05-18T22:52:19.446Z,9.90
2019-05-18T22:54:50.912Z,10.30
2019-05-18T22:57:23.441Z,9.78
2019-05-18T22:59:54.645Z,9.55
2019-05-18T23:02:24.726Z,10.53
2019-05-18T23:04:54.852Z,9.48
2019-05-18T23:07:24.918Z,9.40
2019-05-18T23:09:54.927Z,9.08
2019-05-18T23:12:25.202Z,10.98
2019-05-18T23:14:55.306Z,9.70
2019-05-18T23:17:25.445Z,9.40
2019-05-18T23:19:55.587Z,10.43
2019-05-18T23:22:25.806Z,8.88
2019-05-18T23:24:55.959Z,9.10
2019-05-18T23:27:25.951Z,7.70
2019-05-18T23:29:56.151Z,8.80
2019-05-18T23:32:26.293Z,8.50
2019-05-18T23:34:56.297Z,8.60
2019-05-18T23:37:26.564Z,9.43
2019-05-18T23:39:56.846Z,10.23
2019-05-18T23:42:26.950Z,9.73
2019-05-18T23:44:57.134Z,9.35
2019-05-18T23:47:27.271Z,9.43
2019-05-18T23:49:57.290Z,9.15
2019-05-18T23:52:28.067Z,9.00
2019-05-18T23:54:58.370Z,8.75
2019-05-18T23:57:28.445Z,8.78
2019-05-18T23:59:58.771Z,8.88
